Time;durP1;ratioP1;P1;durP2;ratioP2;P2;SDS_P1;SDS_P2;PMS_P1;PMS_P2;Temp;Humidity;BMP_temperature;BMP_pressure;BME280_temperature;BME280_humidity;BME280_pressure;Samples;Min_cycle;Max_cycle;Signal;HPM_P1;HPM_P2
2022/04/22 14:01:27;;;;;;;;;4.67;3.00;;;;;26.48;23.81;99690.88;5146288;27;45415;-76
2022/04/22 14:03:53;;;;;;;;;3.67;3.67;;;;;26.42;23.73;99687.88;5094818;27;45410;-76
2022/04/22 14:06:18;;;;;;;;;5.00;5.00;;;;;26.46;24.01;99690.16;5098484;27;45407;-77
2022/04/22 14:08:44;;;;;;;;;5.00;4.33;;;;;26.47;24.01;99680.22;5096236;27;45468;-76
2022/04/22 14:11:09;;;;;;;;;4.33;4.00;;;;;26.53;23.79;99677.88;5094902;27;45443;-80
2022/04/22 14:13:35;;;;;;;;;23.25;22.75;;;;;26.76;23.94;99693.91;5091891;27;45675;-78
2022/04/22 14:16:01;;;;;;;;;7.00;7.00;;;;;26.93;24.22;99695.97;5095931;27;45725;-76
2022/04/22 14:18:35;;;;;;;;;2.00;2.00;;;;;27.01;23.70;99674.50;5081247;27;45495;-76
2022/04/22 14:21:01;;;;;;;;;3.33;3.33;;;;;27.08;23.66;99672.13;5082670;27;46735;-77
2022/04/22 14:23:27;;;;;;;;;3.33;3.33;;;;;27.30;23.32;99691.84;5094145;27;46048;-76
2022/04/22 14:25:56;;;;;;;;;5.00;4.00;;;;;27.33;23.49;99688.84;5093640;27;45397;-78
2022/04/22 14:28:22;;;;;;;;;4.00;4.00;;;;;27.46;23.54;99695.72;5093537;27;45601;-76
2022/04/22 14:30:49;;;;;;;;;5.67;4.00;;;;;27.55;23.56;99675.06;5094521;27;46268;-75
2022/04/22 14:33:14;;;;;;;;;5.00;5.00;;;;;27.56;22.87;99655.16;5093411;27;45292;-75
2022/04/22 14:35:40;;;;;;;;;5.33;5.33;;;;;27.53;22.86;99674.34;5102461;27;45526;-75
2022/04/22 14:38:05;;;;;;;;;2.33;2.33;;;;;27.41;22.86;99652.00;5099197;27;45366;-75
2022/04/22 14:40:31;;;;;;;;;5.67;4.00;;;;;27.37;22.72;99671.34;5090684;27;46027;-75
2022/04/22 14:42:56;;;;;;;;;4.67;4.00;;;;;27.19;22.97;99663.94;5093918;27;45348;-74
2022/04/22 14:45:22;;;;;;;;;6.00;5.33;;;;;26.92;22.70;99675.34;5095137;27;45252;-75
2022/04/22 14:47:48;;;;;;;;;3.33;2.67;;;;;26.81;22.89;99678.13;5093260;27;45599;-75
2022/04/22 14:50:14;;;;;;;;;6.00;4.33;;;;;26.69;23.05;99669.28;5096062;27;47469;-75
2022/04/22 14:52:40;;;;;;;;;4.67;4.67;;;;;26.46;23.40;99665.84;5103701;27;45470;-77
2022/04/22 14:55:06;;;;;;;;;4.00;3.67;;;;;26.43;24.28;99679.63;5099639;27;45420;-76
2022/04/22 14:57:32;;;;;;;;;4.33;4.33;;;;;26.29;23.85;99667.34;5105889;27;45570;-74
2022/04/22 14:59:58;;;;;;;;;5.00;5.00;;;;;26.22;24.05;99670.69;5087722;27;45726;-75
2022/04/22 15:02:24;;;;;;;;;5.00;5.00;;;;;26.25;24.06;99670.41;5102349;27;45479;-77
2022/04/22 15:04:51;;;;;;;;;4.33;4.33;;;;;26.14;23.75;99674.03;5100263;27;46652;-76
2022/04/22 15:07:19;;;;;;;;;5.33;4.00;;;;;26.13;23.69;99659.69;5098457;27;45543;-77
2022/04/22 15:09:45;;;;;;;;;6.33;5.00;;;;;26.07;23.63;99659.41;5090427;27;47407;-77
2022/04/22 15:12:10;;;;;;;;;4.33;4.33;;;;;26.14;24.28;99668.66;5104969;27;45604;-76
2022/04/22 15:14:36;;;;;;;;;4.67;4.67;;;;;26.25;24.20;99663.22;5089074;27;45424;-76
2022/04/22 15:17:02;;;;;;;;;4.00;3.67;;;;;26.40;24.03;99647.50;5100939;27;45427;-76
2022/04/22 15:25:04;;;;;;;;;4.67;4.33;;;;;26.90;23.86;99673.78;5064891;27;45384;-76
2022/04/22 15:27:31;;;;;;;;;3.33;3.33;;;;;27.01;23.62;99676.38;5088486;27;45797;-76
2022/04/22 15:29:57;;;;;;;;;4.00;4.00;;;;;27.05;23.51;99659.75;5093212;27;45585;-77
2022/04/22 15:32:24;;;;;;;;;6.00;6.00;;;;;27.21;23.51;99674.59;5092045;27;45438;-77
2022/04/22 15:34:49;;;;;;;;;3.67;3.67;;;;;26.99;23.05;99671.09;5086992;27;45551;-77
2022/04/22 15:37:15;;;;;;;;;5.00;4.00;;;;;26.87;23.62;99661.41;5090630;27;45195;-77
2022/04/22 15:39:45;;;;;;;;;3.67;2.67;;;;;26.55;23.85;99654.31;5097250;27;46619;-77
2022/04/22 15:42:11;;;;;;;;;6.67;5.67;;;;;26.36;23.43;99655.03;5091329;27;45376;-76
2022/04/22 15:44:42;;;;;;;;;6.00;5.00;;;;;26.54;23.85;99678.72;5092756;27;45460;-76
2022/04/22 15:47:07;;;;;;;;;6.33;6.33;;;;;26.63;23.56;99677.06;5090998;27;45538;-77
2022/04/22 15:49:33;;;;;;;;;5.00;4.67;;;;;26.45;23.39;99671.41;5092095;27;48418;-76
2022/04/22 15:51:59;;;;;;;;;3.67;3.67;;;;;26.15;24.08;99660.44;5089808;27;45412;-76
2022/04/22 15:54:24;;;;;;;;;5.67;4.00;;;;;26.13;24.16;99659.69;5081836;27;45278;-77
2022/04/22 15:56:50;;;;;;;;;8.67;6.00;;;;;26.19;23.81;99669.09;5091318;27;45447;-76
2022/04/22 15:59:16;;;;;;;;;3.67;3.67;;;;;26.37;23.83;99678.31;5081746;27;45611;-77
2022/04/22 16:01:43;;;;;;;;;5.67;4.67;;;;;26.32;23.81;99658.97;5103801;27;45542;-77
2022/04/22 16:04:09;;;;;;;;;5.00;5.00;;;;;26.58;23.97;99664.81;5078751;27;45544;-77
2022/04/22 16:06:40;;;;;;;;;3.00;3.00;;;;;26.73;23.61;99659.94;5071881;27;45512;-77
2022/04/22 16:09:06;;;;;;;;;3.33;3.33;;;;;26.90;23.38;99671.06;5081007;27;45529;-77
2022/04/22 16:17:02;;;;;;;;;4.33;3.00;;;;;26.99;23.12;99652.19;5078481;27;45416;-77
2022/04/22 16:19:30;;;;;;;;;4.00;3.00;;;;;27.02;23.07;99649.22;5068732;27;45822;-77
2022/04/22 16:21:55;;;;;;;;;3.00;3.00;;;;;27.05;23.01;99643.53;5076893;27;45497;-78
2022/04/22 16:24:21;;;;;;;;;7.67;6.00;;;;;26.94;23.14;99637.38;5076238;27;45426;-77
2022/04/22 16:26:46;;;;;;;;;3.67;3.67;;;;;27.00;23.17;99653.91;5080013;27;45414;-75
2022/04/22 16:29:12;;;;;;;;;4.00;4.00;;;;;27.13;22.85;99653.66;5077109;27;47404;-75
2022/04/22 16:31:38;;;;;;;;;4.00;2.67;;;;;27.03;22.66;99634.72;5080698;27;45413;-75
2022/04/22 16:34:04;;;;;;;;;3.00;3.00;;;;;27.16;22.91;99652.50;5078953;27;45464;-75
2022/04/22 16:36:30;;;;;;;;;2.00;2.00;;;;;27.21;23.00;99642.16;5077834;27;45660;-75
2022/04/22 16:38:55;;;;;;;;;4.00;4.00;;;;;27.28;22.75;99649.56;5075474;27;46305;-78
2022/04/22 16:41:21;;;;;;;;;4.00;4.00;;;;;27.25;22.46;99646.31;5079709;27;45597;-77
2022/04/22 16:43:46;;;;;;;;;3.00;3.00;;;;;27.31;22.81;99650.28;5078139;27;45545;-77
2022/04/22 16:46:13;;;;;;;;;3.67;3.67;;;;;27.28;22.82;99643.31;5082004;27;45879;-77
2022/04/22 16:48:40;;;;;;;;;4.00;4.00;;;;;27.23;22.61;99634.78;5078139;27;47505;-77
2022/04/22 16:51:06;;;;;;;;;1.67;1.33;;;;;27.19;22.52;99636.06;5078697;27;45508;-77
2022/04/22 16:53:34;;;;;;;;;4.33;4.33;;;;;27.15;22.57;99656.19;5078095;27;45753;-77
2022/04/22 16:56:04;;;;;;;;;3.33;3.33;;;;;26.96;22.95;99638.94;5082245;27;45718;-77
2022/04/22 16:58:31;;;;;;;;;4.00;4.00;;;;;26.87;23.04;99642.50;5075181;27;45542;-77
2022/04/22 17:00:58;;;;;;;;;3.25;3.25;;;;;26.80;22.63;99646.72;5082232;27;45487;-77
2022/04/22 17:03:25;;;;;;;;;3.67;3.67;;;;;26.64;22.73;99644.53;5077134;27;46312;-77
2022/04/22 17:05:51;;;;;;;;;4.50;3.50;;;;;26.43;22.84;99646.38;5083092;27;45876;-79
2022/04/22 17:08:16;;;;;;;;;3.33;3.33;;;;;26.26;23.10;99645.16;5079819;27;46270;-77
2022/04/22 17:10:42;;;;;;;;;5.00;4.33;;;;;26.31;23.25;99648.31;5082339;27;45537;-77
2022/04/22 17:13:07;;;;;;;;;4.00;4.00;;;;;26.72;23.10;99643.84;5074798;27;45716;-77
2022/04/22 17:23:44;;;;;;;;;4.00;4.00;;;;;29.09;21.51;99628.88;5082979;27;45441;-74
2022/04/22 17:26:15;;;;;;;;;4.67;4.67;;;;;29.89;21.32;99642.59;5084276;27;45553;-76
2022/04/22 17:28:42;;;;;;;;;4.33;4.00;;;;;30.61;20.50;99636.94;5082118;27;45538;-76
2022/04/22 17:31:08;;;;;;;;;2.67;2.67;;;;;31.29;20.26;99649.66;5092996;27;45368;-76
2022/04/22 17:33:35;;;;;;;;;5.00;5.00;;;;;31.52;19.53;99618.09;5098114;27;45322;-77
2022/04/22 17:36:02;;;;;;;;;4.33;4.33;;;;;31.78;19.49;99645.19;5102453;27;45712;-77
2022/04/22 17:38:27;;;;;;;;;4.33;4.33;;;;;31.61;19.15;99630.69;5081309;27;45414;-79
2022/04/22 17:40:53;;;;;;;;;4.33;4.33;;;;;31.11;18.97;99628.00;5077746;27;45358;-80
2022/04/22 17:43:18;;;;;;;;;3.67;3.67;;;;;30.45;19.68;99627.72;5077836;27;45979;-80
2022/04/22 17:45:44;;;;;;;;;4.00;4.00;;;;;29.80;19.66;99641.63;5082836;27;45434;-79
2022/04/22 17:48:09;;;;;;;;;4.33;4.00;;;;;29.27;20.00;99636.19;5083650;27;45896;-81
2022/04/22 17:50:36;;;;;;;;;5.33;5.33;;;;;28.67;20.18;99647.47;5078155;27;45284;-79
2022/04/22 17:53:02;;;;;;;;;4.67;4.67;;;;;28.15;20.86;99639.78;5078284;27;45368;-82
2022/04/22 17:55:27;;;;;;;;;8.00;6.00;;;;;27.67;21.17;99633.38;5078344;28;45559;-82
2022/04/22 17:57:52;;;;;;;;;6.75;6.75;;;;;27.25;21.46;99641.75;5079018;27;46397;-82
2022/04/22 18:00:18;;;;;;;;;8.00;7.00;;;;;26.72;21.86;99639.28;5077487;28;45239;-82
2022/04/22 18:02:45;;;;;;;;;8.00;6.25;;;;;26.14;22.36;99641.66;5077418;28;45407;-82
2022/04/22 18:05:11;;;;;;;;;6.50;5.75;;;;;25.81;22.89;99643.56;5090912;27;45347;-82
2022/04/22 18:07:37;;;;;;;;;5.75;5.75;;;;;25.40;23.15;99630.88;5078210;28;46606;-82
2022/04/22 18:10:02;;;;;;;;;6.50;4.00;;;;;25.05;23.15;99631.91;5086652;27;45466;-82
2022/04/22 18:12:28;;;;;;;;;7.50;6.75;;;;;24.67;23.79;99629.63;5078359;28;45414;-83
2022/04/22 18:17:54;;;;;;;;;5.25;5.00;;;;;23.96;24.29;99632.47;5016904;28;45337;-82
2022/04/22 18:20:20;;;;;;;;;6.75;6.75;;;;;23.52;24.98;99632.19;5066119;27;45585;-82
2022/04/22 18:22:49;;;;;;;;;7.00;7.00;;;;;23.27;25.86;99638.50;5079776;28;45307;-82
2022/04/22 18:25:14;;;;;;;;;6.25;5.50;;;;;22.96;25.61;99631.88;5078139;28;46108;-82
2022/04/22 18:27:40;;;;;;;;;7.50;6.00;;;;;22.79;26.33;99641.09;5079518;27;45373;-82
2022/04/22 18:30:07;;;;;;;;;5.50;5.50;;;;;22.51;26.10;99634.19;5079634;27;45234;-82
2022/04/22 18:32:32;;;;;;;;;4.00;4.00;;;;;22.31;26.78;99630.22;5077986;28;45276;-82
2022/04/22 18:34:59;;;;;;;;;5.25;5.25;;;;;22.19;27.01;99644.50;5072641;27;45185;-82
2022/04/22 18:37:26;;;;;;;;;8.25;7.75;;;;;21.98;27.08;99636.94;5078177;28;48345;-82
2022/04/22 18:39:54;;;;;;;;;8.25;8.00;;;;;21.75;27.70;99646.53;5077890;28;45453;-82
2022/04/22 18:42:20;;;;;;;;;7.00;7.00;;;;;21.54;28.41;99646.19;5079376;27;45443;-82
2022/04/22 18:44:51;;;;;;;;;7.25;6.50;;;;;21.28;28.40;99628.28;5079344;27;45250;-82
2022/04/22 18:47:17;;;;;;;;;7.00;6.50;;;;;21.20;28.89;99644.84;5081395;27;45406;-82
2022/04/22 18:49:42;;;;;;;;;10.00;10.00;;;;;21.02;28.86;99628.16;5081595;28;46765;-82
2022/04/22 18:52:08;;;;;;;;;8.25;6.75;;;;;20.96;29.13;99643.78;5081884;28;45398;-82
2022/04/22 18:54:34;;;;;;;;;9.00;7.75;;;;;20.73;29.61;99635.38;5082019;28;45493;-83
2022/04/22 18:57:00;;;;;;;;;6.75;6.75;;;;;20.70;29.55;99649.81;5081663;28;48155;-83
2022/04/22 18:59:25;;;;;;;;;10.25;10.25;;;;;20.59;30.10;99664.81;5081643;28;45367;-82
2022/04/22 19:01:51;;;;;;;;;8.75;8.75;;;;;20.46;30.38;99670.03;5082972;27;45372;-82
2022/04/22 19:04:20;;;;;;;;;8.50;7.25;;;;;20.33;30.64;99658.38;5086792;27;45151;-82
2022/04/22 19:06:49;;;;;;;;;9.00;8.50;;;;;20.12;31.12;99645.38;5083554;27;46103;-82
2022/04/22 19:09:14;;;;;;;;;8.25;7.25;;;;;20.03;31.30;99661.97;5083655;27;45475;-82
2022/04/22 19:11:40;;;;;;;;;12.25;9.75;;;;;20.02;31.31;99668.25;5082389;28;45408;-82
2022/04/22 19:14:07;;;;;;;;;12.25;12.25;;;;;19.81;32.63;99657.91;5083750;27;45177;-82
2022/04/22 19:16:33;;;;;;;;;13.00;11.75;;;;;19.65;32.77;99665.09;5082680;27;46305;-83
2022/04/22 19:19:01;;;;;;;;;13.00;12.00;;;;;19.43;33.38;99668.13;5068826;27;45176;-82
2022/04/22 19:21:27;;;;;;;;;9.00;8.25;;;;;19.24;34.00;99667.47;5082918;27;45410;-82
2022/04/22 19:23:53;;;;;;;;;14.75;14.75;;;;;19.11;34.94;99670.84;5082468;27;45267;-82
2022/04/22 19:26:19;;;;;;;;;10.50;10.50;;;;;18.95;34.75;99677.94;5082015;27;45400;-82
2022/04/22 19:28:45;;;;;;;;;10.50;10.50;;;;;18.79;36.31;99685.06;5081164;28;45362;-82
2022/04/22 19:31:31;;;;;;;;;;;;;;;;;;;;;
2022/04/22 19:34:00;;;;;;;;;10.00;9.25;;;;;18.45;36.74;99677.06;5068919;28;74645;-82
2022/04/22 19:41:57;;;;;;;;;13.00;11.25;;;;;18.20;37.13;99674.84;5070085;28;45326;-83
2022/04/22 19:44:22;;;;;;;;;13.00;10.00;;;;;17.99;37.56;99657.31;5080741;28;45511;-82
2022/04/22 19:46:48;;;;;;;;;12.25;9.25;;;;;17.97;37.34;99657.41;5080834;28;46997;-82
2022/04/22 19:49:13;;;;;;;;;12.50;11.50;;;;;17.97;37.37;99664.53;5080690;27;45263;-80
2022/04/22 19:51:39;;;;;;;;;11.50;11.50;;;;;17.89;37.36;99658.75;5082490;27;45645;-80
2022/04/22 19:54:05;;;;;;;;;11.00;10.00;;;;;17.95;37.75;99677.91;5082210;28;45286;-80
2022/04/22 19:56:31;;;;;;;;;13.25;11.00;;;;;17.94;37.41;99676.19;5082299;27;45604;-81
2022/04/22 19:58:57;;;;;;;;;13.25;12.25;;;;;17.87;38.17;99679.25;5081549;27;45201;-81
2022/04/22 20:01:22;;;;;;;;;11.75;11.00;;;;;17.84;37.94;99677.59;5081587;27;45282;-81
2022/04/22 20:03:48;;;;;;;;;11.00;11.00;;;;;17.70;38.17;99664.13;5081841;27;45241;-81
2022/04/22 20:06:14;;;;;;;;;12.25;10.75;;;;;17.68;38.34;99658.84;5081969;27;45221;-81
2022/04/22 20:08:40;;;;;;;;;11.50;11.00;;;;;17.63;38.95;99666.22;5080483;28;46064;-81
2022/04/22 20:11:05;;;;;;;;;13.50;11.50;;;;;17.57;38.63;99667.38;5080678;28;45551;-81
2022/04/22 20:13:31;;;;;;;;;12.25;11.25;;;;;17.53;39.71;99679.09;5081711;27;45484;-81
2022/04/22 20:15:57;;;;;;;;;17.75;17.25;;;;;17.40;39.02;99662.91;5081363;27;46044;-81
2022/04/22 20:18:23;;;;;;;;;13.25;13.00;;;;;17.32;39.29;99662.41;5080400;28;45464;-81
2022/04/22 20:20:50;;;;;;;;;11.00;10.00;;;;;17.39;39.50;99671.81;5081550;27;45405;-81
2022/04/22 20:23:16;;;;;;;;;12.50;12.00;;;;;17.30;39.88;99664.28;5081752;27;45243;-80
2022/04/22 20:25:42;;;;;;;;;10.75;10.75;;;;;17.18;39.68;99641.78;5079843;27;47205;-81
2022/04/22 20:28:08;;;;;;;;;14.25;11.00;;;;;17.18;39.51;99656.88;5079998;28;45305;-81
2022/04/22 20:30:34;;;;;;;;;13.25;12.50;;;;;17.19;40.14;99669.28;5081684;27;45274;-81
2022/04/22 20:32:59;;;;;;;;;9.50;9.50;;;;;17.13;39.77;99665.09;5079829;28;45610;-81
2022/04/22 20:40:59;;;;;;;;;8.00;8.00;;;;;17.01;40.52;99656.84;5082225;28;45369;-81
2022/04/22 20:43:25;;;;;;;;;10.25;10.25;;;;;16.96;40.76;99665.91;5079950;27;45702;-80
2022/04/22 20:45:51;;;;;;;;;12.75;11.25;;;;;16.85;40.64;99652.25;5093339;27;47490;-80
2022/04/22 20:48:18;;;;;;;;;12.25;10.00;;;;;16.85;40.86;99662.88;5081536;28;45282;-80
2022/04/22 20:50:46;;;;;;;;;12.00;11.00;;;;;16.74;40.86;99647.41;5081635;27;45173;-81
2022/04/22 20:55:56;;;;;;;;;13.50;11.25;;;;;16.82;40.95;99675.47;5080785;28;45476;-81
2022/04/22 20:58:22;;;;;;;;;10.25;10.25;;;;;16.75;41.08;99657.09;5090250;27;45694;-81
2022/04/22 21:00:51;;;;;;;;;15.00;14.75;;;;;16.59;41.25;99637.47;5080910;27;45400;-81
2022/04/22 21:03:18;;;;;;;;;13.00;11.00;;;;;16.69;41.29;99656.53;5079585;28;45411;-81
2022/04/22 21:05:47;;;;;;;;;17.00;16.25;;;;;16.69;41.29;99660.03;5082343;27;47677;-80
2022/04/22 21:08:12;;;;;;;;;14.50;13.25;;;;;16.68;41.42;99665.41;5079659;28;46311;-80
2022/04/22 21:10:38;;;;;;;;;12.75;12.75;;;;;16.50;41.53;99646.75;5079066;27;45421;-81
2022/04/22 21:13:04;;;;;;;;;14.00;12.25;;;;;16.61;41.92;99658.69;5079408;28;45601;-81
2022/04/22 21:15:30;;;;;;;;;15.25;13.50;;;;;16.57;41.67;99660.59;5079176;28;47225;-81
2022/04/22 21:17:57;;;;;;;;;14.75;11.75;;;;;16.54;41.91;99656.31;5071358;27;45250;-80
2022/04/22 21:20:22;;;;;;;;;17.00;13.25;;;;;16.41;41.70;99639.22;5076594;28;45263;-81
2022/04/22 21:22:48;;;;;;;;;15.50;15.25;;;;;16.36;41.80;99645.63;5080541;28;45292;-81
2022/04/22 21:25:14;;;;;;;;;15.50;12.00;;;;;16.57;41.77;99681.00;5080172;27;45253;-80
2022/04/22 21:27:39;;;;;;;;;13.75;12.75;;;;;16.29;42.29;99639.75;5080663;27;45289;-81
2022/04/22 21:30:07;;;;;;;;;15.25;12.75;;;;;16.45;42.09;99672.66;5079198;28;45236;-81
2022/04/22 21:32:32;;;;;;;;;18.00;17.25;;;;;16.48;42.30;99690.25;5080473;27;45435;-81
2022/04/22 21:34:58;;;;;;;;;16.50;15.00;;;;;16.43;42.41;99681.63;5074211;28;46600;-81
2022/04/22 21:37:23;;;;;;;;;19.75;16.50;;;;;16.34;42.33;99679.41;5079044;28;45498;-80
2022/04/22 21:39:49;;;;;;;;;16.25;14.00;;;;;16.31;42.40;99670.63;5080448;27;45407;-81
2022/04/22 21:42:16;;;;;;;;;19.75;17.00;;;;;16.44;42.50;99693.97;5078886;28;45466;-81
2022/04/22 21:44:45;;;;;;;;;16.50;14.75;;;;;16.35;42.34;99673.16;5080267;27;45977;-81
2022/04/22 21:47:11;;;;;;;;;19.00;18.50;;;;;16.37;42.60;99679.25;5078692;28;45424;-81
2022/04/22 21:49:36;;;;;;;;;17.50;17.25;;;;;16.26;42.52;99662.00;5080137;27;45369;-81
2022/04/22 21:52:03;;;;;;;;;25.25;19.75;;;;;16.23;42.68;99659.47;5078875;28;45476;-81
2022/04/22 21:54:29;;;;;;;;;17.75;17.25;;;;;16.20;42.85;99648.13;5080134;27;45521;-81
2022/04/22 21:56:54;;;;;;;;;18.00;17.00;;;;;16.28;42.74;99668.13;5079930;27;45374;-81
2022/04/22 21:59:20;;;;;;;;;19.25;17.75;;;;;16.28;43.15;99676.09;5078704;28;45323;-81
2022/04/22 22:01:45;;;;;;;;;16.25;15.00;;;;;16.17;43.17;99658.88;5079688;27;45884;-81
2022/04/22 22:04:12;;;;;;;;;17.25;17.25;;;;;16.09;43.30;99649.47;5079713;27;46308;-81
2022/04/22 22:06:38;;;;;;;;;20.50;19.00;;;;;15.92;43.23;99633.41;5079523;27;45362;-80
2022/04/22 22:09:04;;;;;;;;;20.25;18.50;;;;;16.01;43.24;99648.97;5078200;28;45332;-81
2022/04/22 22:11:31;;;;;;;;;22.25;19.50;;;;;16.05;43.53;99669.13;5077642;28;46048;-85
2022/04/22 22:13:56;;;;;;;;;19.75;18.50;;;;;15.83;43.69;99634.69;5079144;28;47036;-84
2022/04/22 22:16:22;;;;;;;;;16.00;15.00;;;;;15.79;43.92;99632.22;5078656;28;45729;-84
2022/04/22 22:18:47;;;;;;;;;21.25;17.50;;;;;15.90;43.88;99655.63;5066909;27;45448;-81
2022/04/22 22:21:14;;;;;;;;;17.00;16.25;;;;;15.97;43.83;99662.41;5079539;28;45492;-78
2022/04/22 22:23:41;;;;;;;;;15.25;15.25;;;;;15.96;43.98;99673.94;5094428;27;47211;-78
2022/04/22 22:26:07;;;;;;;;;61.75;49.50;;;;;15.94;44.37;99651.94;5072518;27;45411;-78
2022/04/22 22:28:34;;;;;;;;;26.50;23.75;;;;;15.96;44.28;99650.06;5079831;27;45764;-78
2022/04/22 22:31:00;;;;;;;;;17.75;17.75;;;;;15.90;43.98;99642.38;5080705;27;45946;-77
2022/04/22 22:33:25;;;;;;;;;23.25;18.75;;;;;15.94;44.16;99650.16;5079250;27;47319;-78
2022/04/22 22:35:51;;;;;;;;;12.25;11.00;;;;;15.96;43.89;99655.38;5079328;27;45343;-78
2022/04/22 22:38:17;;;;;;;;;19.00;16.25;;;;;15.84;43.80;99630.22;5078968;27;45512;-78
2022/04/22 22:40:43;;;;;;;;;17.75;17.00;;;;;15.79;44.26;99622.47;5074963;28;45465;-80
2022/04/22 22:43:09;;;;;;;;;16.25;15.00;;;;;15.96;44.02;99650.06;5078252;27;45537;-79
2022/04/22 22:45:35;;;;;;;;;21.50;19.25;;;;;15.92;44.27;99643.19;5081026;27;45509;-79
2022/04/22 22:48:01;;;;;;;;;16.75;15.75;;;;;15.88;44.03;99639.81;5080516;27;45431;-80
2022/04/22 22:50:27;;;;;;;;;21.25;19.00;;;;;15.94;44.21;99649.28;5089444;27;45557;-80
2022/04/22 22:52:52;;;;;;;;;20.50;17.00;;;;;15.77;44.20;99616.38;5097213;27;47264;-79
2022/04/22 22:55:19;;;;;;;;;21.00;20.00;;;;;15.75;44.55;99620.03;5080892;27;45692;-80
2022/04/22 22:57:44;;;;;;;;;25.25;22.50;;;;;15.84;44.71;99639.06;5079397;27;45711;-80
2022/04/22 23:00:11;;;;;;;;;19.00;18.25;;;;;15.74;44.73;99627.09;5080533;27;45441;-80
2022/04/22 23:02:37;;;;;;;;;18.25;18.25;;;;;15.73;44.46;99622.72;5080510;27;45782;-80
2022/04/22 23:05:04;;;;;;;;;22.75;18.50;;;;;15.73;44.45;99625.38;5079073;27;45632;-80
2022/04/22 23:07:29;;;;;;;;;21.00;20.25;;;;;15.67;44.57;99617.66;5079622;27;45565;-82
2022/04/22 23:09:55;;;;;;;;;20.75;20.25;;;;;15.75;44.71;99626.19;5079239;27;45489;-81
2022/04/22 23:12:21;;;;;;;;;27.00;23.50;;;;;15.57;45.05;99595.09;5079346;27;47662;-80
2022/04/22 23:14:48;;;;;;;;;23.50;20.75;;;;;15.61;44.96;99610.84;5088780;27;45776;-81
2022/04/22 23:17:13;;;;;;;;;25.75;22.75;;;;;15.58;45.07;99615.38;5092438;27;45355;-81
2022/04/22 23:19:39;;;;;;;;;22.50;21.00;;;;;15.43;45.02;99599.19;5070424;28;45444;-81
2022/04/22 23:22:05;;;;;;;;;23.00;22.25;;;;;15.38;45.29;99598.53;5085222;27;46512;-81
2022/04/22 23:24:30;;;;;;;;;26.75;23.25;;;;;15.51;45.22;99624.56;5078660;27;45642;-81
2022/04/22 23:26:56;;;;;;;;;29.75;25.00;;;;;15.50;45.40;99618.34;5080692;27;45587;-81
2022/04/22 23:29:24;;;;;;;;;21.25;20.00;;;;;15.51;45.13;99614.81;5080304;27;45504;-81
2022/04/22 23:31:52;;;;;;;;;25.50;22.75;;;;;15.55;45.22;99621.69;5078421;27;47376;-81
2022/04/22 23:34:18;;;;;;;;;23.25;20.25;;;;;15.39;45.32;99602.91;5080199;27;45503;-80
2022/04/22 23:36:43;;;;;;;;;22.50;20.50;;;;;15.47;45.21;99613.19;5080363;28;45670;-80
2022/04/22 23:39:09;;;;;;;;;26.25;25.00;;;;;15.38;45.35;99595.03;5080350;27;45491;-81
2022/04/22 23:41:34;;;;;;;;;20.75;19.25;;;;;15.30;45.31;99581.22;5079742;28;45595;-81
2022/04/22 23:44:01;;;;;;;;;28.75;28.25;;;;;15.46;45.61;99614.13;5079538;28;45327;-81
2022/04/22 23:46:27;;;;;;;;;13.00;11.00;;;;;15.33;45.64;99589.03;5080396;27;45745;-81
2022/04/22 23:48:53;;;;;;;;;25.00;25.00;;;;;15.39;45.25;99610.00;5080264;27;45509;-81
2022/04/22 23:51:18;;;;;;;;;25.00;23.25;;;;;15.25;45.64;99585.84;5089695;27;46762;-81
2022/04/22 23:53:44;;;;;;;;;30.25;23.50;;;;;15.15;45.80;99574.75;5072380;27;45787;-81
2022/04/22 23:56:09;;;;;;;;;27.75;24.50;;;;;15.24;45.84;99592.94;5080868;28;45534;-81
2022/04/22 23:58:38;;;;;;;;;22.00;21.00;;;;;15.18;45.97;99593.19;5080650;27;45536;-81
